createdAt,value
2019-04-30T00:00:03.052Z,18.50
2019-04-30T00:02:38.360Z,18.70
2019-04-30T00:05:00.563Z,19.37
2019-04-30T00:07:27.851Z,21.17
2019-04-30T00:09:57.569Z,21.57
2019-04-30T00:12:25.767Z,20.70
2019-04-30T00:14:54.911Z,21.55
2019-04-30T00:17:22.252Z,20.90
2019-04-30T00:19:50.469Z,21.57
2019-04-30T00:22:30.509Z,22.20
2019-04-30T00:24:50.054Z,23.73
2019-04-30T00:27:21.039Z,25.37
2019-04-30T00:29:46.408Z,23.65
2019-04-30T00:32:13.736Z,25.72
2019-04-30T00:34:40.984Z,25.75
2019-04-30T00:37:13.888Z,25.45
2019-04-30T00:39:37.953Z,25.32
2019-04-30T00:42:05.236Z,25.27
2019-04-30T00:44:32.548Z,24.80
2019-04-30T00:47:00.593Z,25.05
2019-04-30T00:49:28.996Z,26.77
2019-04-30T00:51:58.155Z,26.25
2019-04-30T00:54:29.365Z,27.70
2019-04-30T00:56:57.503Z,26.87
2019-04-30T00:59:24.990Z,26.77
2019-04-30T01:02:11.846Z,25.00
2019-04-30T01:04:45.084Z,26.77
2019-04-30T01:07:12.911Z,26.12
2019-04-30T01:09:46.500Z,28.12
2019-04-30T01:12:09.412Z,27.40
2019-04-30T01:14:38.220Z,27.37
2019-04-30T01:17:08.893Z,28.57
2019-04-30T01:19:35.203Z,29.77
2019-04-30T01:22:02.528Z,30.00
2019-04-30T01:24:31.664Z,30.17
2019-04-30T01:27:01.548Z,30.02
2019-04-30T01:29:31.128Z,28.00
2019-04-30T01:31:58.637Z,29.60
2019-04-30T01:34:26.088Z,28.70
2019-04-30T01:36:53.392Z,30.43
2019-04-30T01:39:23.653Z,30.43
2019-04-30T01:41:49.972Z,30.32
2019-04-30T01:44:17.220Z,30.15
2019-04-30T01:46:48.279Z,30.27
2019-04-30T01:49:13.661Z,30.68
2019-04-30T01:51:40.919Z,33.18
2019-04-30T01:54:09.252Z,32.33
2019-04-30T01:56:55.032Z,31.00
2019-04-30T01:59:25.902Z,31.07
2019-04-30T02:01:53.403Z,31.33
2019-04-30T02:04:20.671Z,31.42
2019-04-30T02:06:49.342Z,32.20
2019-04-30T02:09:18.917Z,32.63
2019-04-30T02:11:45.948Z,33.50
2019-04-30T02:14:13.184Z,32.17
2019-04-30T02:16:40.497Z,30.75
2019-04-30T02:19:09.150Z,33.80
2019-04-30T02:21:38.278Z,34.05
2019-04-30T02:24:06.102Z,33.83
2019-04-30T02:26:33.365Z,31.68
2019-04-30T02:29:00.613Z,33.65
2019-04-30T02:31:30.759Z,33.48
2019-04-30T02:34:05.232Z,33.40
2019-04-30T02:36:51.990Z,31.87
2019-04-30T02:39:20.365Z,31.50
2019-04-30T02:41:50.629Z,31.20
2019-04-30T02:44:19.689Z,32.20
2019-04-30T02:46:50.449Z,31.90
2019-04-30T02:49:20.375Z,33.58
2019-04-30T02:51:50.060Z,33.53
2019-04-30T02:54:24.693Z,36.60
2019-04-30T02:57:11.572Z,35.40
2019-04-30T02:59:59.837Z,35.05
2019-04-30T03:02:29.148Z,34.95
2019-04-30T03:04:56.632Z,35.63
2019-04-30T03:07:23.950Z,37.00
2019-04-30T03:09:51.172Z,35.63
2019-04-30T03:12:20.191Z,35.38
2019-04-30T03:14:49.785Z,37.15
2019-04-30T03:17:42.198Z,35.55
2019-04-30T03:20:35.356Z,37.35
2019-04-30T03:23:02.053Z,37.53
2019-04-30T03:25:26.314Z,37.38
2019-04-30T03:27:53.589Z,33.42
2019-04-30T03:30:21.883Z,33.85
2019-04-30T03:32:55.487Z,35.80
2019-04-30T03:35:22.793Z,36.38
2019-04-30T03:37:49.670Z,34.45
2019-04-30T03:40:17.096Z,37.45
2019-04-30T03:42:44.509Z,37.00
2019-04-30T03:45:11.982Z,36.58
2019-04-30T03:47:40.323Z,34.53
2019-04-30T03:50:09.285Z,35.83
2019-04-30T03:52:39.251Z,34.83
2019-04-30T03:55:06.145Z,35.13
2019-04-30T03:57:33.481Z,36.50
2019-04-30T04:00:00.782Z,35.43
2019-04-30T04:02:43.118Z,35.33
2019-04-30T04:05:20.245Z,35.45
2019-04-30T04:07:56.584Z,33.98
2019-04-30T04:10:33.244Z,35.55
2019-04-30T04:13:00.468Z,34.75
2019-04-30T04:15:29.915Z,35.05
2019-04-30T04:17:56.997Z,35.88
2019-04-30T04:20:24.376Z,35.85
2019-04-30T04:22:51.658Z,34.92
2019-04-30T04:25:20.354Z,34.63
2019-04-30T04:27:50.566Z,35.35
2019-04-30T04:30:20.020Z,34.63
2019-04-30T04:32:46.418Z,35.60
2019-04-30T04:35:13.663Z,34.27
2019-04-30T04:37:40.925Z,34.10
2019-04-30T04:40:09.355Z,36.25
2019-04-30T04:42:39.341Z,35.15
2019-04-30T04:45:09.849Z,35.50
2019-04-30T04:47:36.401Z,36.05
2019-04-30T04:50:04.285Z,36.68
2019-04-30T04:52:31.873Z,34.33
2019-04-30T04:55:00.378Z,36.03
2019-04-30T04:57:30.495Z,36.90
2019-04-30T04:59:59.583Z,37.28
2019-04-30T05:02:51.877Z,37.95
2019-04-30T05:05:19.522Z,38.20
2019-04-30T05:07:48.618Z,36.73
2019-04-30T05:10:16.127Z,37.23
2019-04-30T05:12:43.352Z,36.55
2019-04-30T05:15:10.691Z,38.20
2019-04-30T05:17:39.830Z,38.83
2019-04-30T05:20:10.051Z,39.15
2019-04-30T05:22:38.923Z,37.77
2019-04-30T05:25:08.652Z,37.88
2019-04-30T05:27:35.814Z,35.75
2019-04-30T05:30:04.028Z,35.98
2019-04-30T05:32:31.271Z,35.08
2019-04-30T05:34:58.746Z,36.55
2019-04-30T05:37:26.183Z,36.20
2019-04-30T05:39:53.459Z,36.05
2019-04-30T05:42:20.713Z,37.15
2019-04-30T05:44:49.691Z,36.80
2019-04-30T05:47:19.368Z,36.10
2019-04-30T05:49:46.391Z,35.80
2019-04-30T05:52:13.719Z,34.13
2019-04-30T05:54:41.001Z,35.58
2019-04-30T05:57:09.478Z,35.80
2019-04-30T05:59:38.763Z,33.63
2019-04-30T06:02:06.213Z,34.88
2019-04-30T06:04:33.470Z,34.38
2019-04-30T06:07:00.773Z,34.67
2019-04-30T06:09:48.383Z,35.40
2019-04-30T06:12:23.935Z,34.38
2019-04-30T06:14:55.259Z,32.55
2019-04-30T06:17:23.055Z,33.92
2019-04-30T06:19:51.566Z,34.38
2019-04-30T06:22:19.488Z,34.92
2019-04-30T06:24:46.850Z,33.33
2019-04-30T06:27:14.301Z,33.15
2019-04-30T06:29:41.851Z,31.77
2019-04-30T06:32:09.320Z,31.30
2019-04-30T06:34:39.542Z,31.33
2019-04-30T06:37:06.941Z,31.40
2019-04-30T06:39:34.316Z,32.38
2019-04-30T06:42:06.423Z,31.17
2019-04-30T06:44:37.327Z,31.15
2019-04-30T06:47:02.320Z,31.17
2019-04-30T06:49:30.355Z,30.57
2019-04-30T06:51:58.834Z,30.25
2019-04-30T06:54:26.139Z,31.17
2019-04-30T06:56:53.437Z,29.67
2019-04-30T06:59:20.687Z,30.12
2019-04-30T07:01:48.928Z,30.02
2019-04-30T07:04:16.469Z,28.40
2019-04-30T07:06:45.224Z,29.20
2019-04-30T07:09:51.905Z,28.83
2019-04-30T07:12:27.264Z,28.40
2019-04-30T07:14:46.567Z,30.30
2019-04-30T07:17:13.795Z,29.42
2019-04-30T07:19:53.339Z,28.70
2019-04-30T07:22:10.312Z,27.22
2019-04-30T07:24:39.379Z,27.95
2019-04-30T07:27:06.824Z,28.30
2019-04-30T07:29:34.056Z,28.25
2019-04-30T07:32:01.320Z,28.02
2019-04-30T07:34:30.300Z,28.75
2019-04-30T07:37:13.387Z,28.67
2019-04-30T07:39:31.214Z,28.35
2019-04-30T07:41:56.547Z,27.27
2019-04-30T07:44:33.775Z,27.67
2019-04-30T07:46:52.920Z,27.98
2019-04-30T07:49:20.722Z,27.55
2019-04-30T07:51:51.243Z,26.23
2019-04-30T07:54:18.978Z,27.48
2019-04-30T07:56:46.481Z,25.12
2019-04-30T07:59:13.740Z,24.23
2019-04-30T08:02:00.518Z,22.75
2019-04-30T08:04:29.268Z,23.73
2019-04-30T08:06:59.671Z,24.55
2019-04-30T08:09:36.598Z,24.67
2019-04-30T08:11:56.361Z,25.08
2019-04-30T08:14:24.678Z,25.10
2019-04-30T08:16:52.039Z,25.52
2019-04-30T08:19:19.279Z,24.23
2019-04-30T08:21:48.493Z,24.00
2019-04-30T08:24:15.680Z,22.27
2019-04-30T08:26:42.929Z,24.12
2019-04-30T08:29:10.172Z,23.73
2019-04-30T08:31:40.684Z,23.32
2019-04-30T08:34:06.674Z,23.77
2019-04-30T08:36:33.957Z,24.15
2019-04-30T08:39:01.318Z,24.40
2019-04-30T08:41:29.274Z,22.98
2019-04-30T08:43:56.728Z,23.80
2019-04-30T08:46:24.025Z,22.73
2019-04-30T08:48:53.723Z,24.50
2019-04-30T08:51:20.778Z,23.12
2019-04-30T08:53:48.734Z,24.87
2019-04-30T08:56:16.048Z,22.77
2019-04-30T08:58:43.326Z,23.65
2019-04-30T09:01:10.541Z,24.12
2019-04-30T09:03:39.264Z,24.32
2019-04-30T09:06:11.636Z,25.12
2019-04-30T09:08:40.374Z,22.00
2019-04-30T09:11:21.823Z,22.98
2019-04-30T09:13:38.851Z,21.73
2019-04-30T09:16:06.360Z,21.87
2019-04-30T09:18:33.625Z,21.20
2019-04-30T09:21:06.035Z,21.20
2019-04-30T09:23:44.003Z,21.33
2019-04-30T09:25:59.885Z,20.82
2019-04-30T09:28:28.948Z,22.70
2019-04-30T09:30:56.367Z,21.73
2019-04-30T09:33:25.568Z,22.30
2019-04-30T09:35:52.880Z,20.65
2019-04-30T09:38:20.148Z,19.75
2019-04-30T09:40:47.358Z,18.73
2019-04-30T09:43:14.652Z,19.45
2019-04-30T09:45:41.939Z,19.55
2019-04-30T09:48:09.458Z,19.75
2019-04-30T09:50:39.136Z,20.17
2019-04-30T09:53:06.856Z,20.70
2019-04-30T09:55:34.140Z,19.60
2019-04-30T09:58:13.737Z,19.27
2019-04-30T10:00:30.908Z,19.77
2019-04-30T10:02:59.854Z,19.80
2019-04-30T10:05:29.074Z,19.95
2019-04-30T10:07:56.488Z,19.55
2019-04-30T10:10:29.012Z,18.57
2019-04-30T10:12:56.284Z,20.02
2019-04-30T10:15:52.035Z,19.12
2019-04-30T10:18:19.301Z,19.48
2019-04-30T10:20:46.448Z,18.05
2019-04-30T10:23:13.708Z,18.50
2019-04-30T10:25:40.958Z,18.70
2019-04-30T10:28:09.981Z,18.15
2019-04-30T10:30:37.577Z,17.55
2019-04-30T10:33:05.296Z,18.17
2019-04-30T10:35:32.610Z,18.70
2019-04-30T10:37:59.979Z,18.35
2019-04-30T10:40:28.696Z,18.98
2019-04-30T10:42:55.973Z,17.55
2019-04-30T10:45:23.049Z,17.12
2019-04-30T10:47:50.128Z,16.42
2019-04-30T10:50:17.592Z,16.35
2019-04-30T10:52:44.847Z,16.10
2019-04-30T10:55:12.385Z,16.45
2019-04-30T10:57:39.792Z,16.27
2019-04-30T11:00:11.648Z,16.45
2019-04-30T11:02:38.934Z,17.10
2019-04-30T11:05:06.737Z,17.27
2019-04-30T11:07:33.841Z,17.92
2019-04-30T11:10:01.068Z,18.95
2019-04-30T11:12:29.200Z,16.62
2019-04-30T11:14:56.676Z,16.17
2019-04-30T11:17:24.159Z,16.77
2019-04-30T11:19:51.883Z,16.40
2019-04-30T11:22:19.595Z,18.07
2019-04-30T11:24:56.717Z,16.42
2019-04-30T11:27:16.322Z,16.48
2019-04-30T11:29:44.495Z,16.80
2019-04-30T11:32:20.821Z,16.90
2019-04-30T11:34:48.174Z,17.17
2019-04-30T11:37:15.408Z,17.57
2019-04-30T11:39:42.697Z,16.57
2019-04-30T11:42:10.002Z,16.48
2019-04-30T11:44:38.671Z,18.65
2019-04-30T11:47:32.963Z,16.65
2019-04-30T11:50:01.361Z,16.73
2019-04-30T11:52:28.634Z,15.80
2019-04-30T11:54:55.935Z,17.48
2019-04-30T11:57:23.064Z,16.25
2019-04-30T11:59:50.536Z,16.85
2019-04-30T12:02:25.398Z,17.90
2019-04-30T12:04:52.994Z,16.65
2019-04-30T12:07:50.711Z,16.07
2019-04-30T12:10:29.286Z,17.48
2019-04-30T12:12:56.273Z,17.67
2019-04-30T12:15:23.428Z,17.98
2019-04-30T12:17:50.700Z,16.45
2019-04-30T12:20:19.661Z,15.48
2019-04-30T12:22:47.124Z,15.95
2019-04-30T12:25:14.387Z,16.35
2019-04-30T12:27:41.604Z,16.15
2019-04-30T12:30:09.356Z,15.78
2019-04-30T12:32:36.814Z,15.95
2019-04-30T12:35:04.811Z,16.10
2019-04-30T12:37:32.014Z,16.62
2019-04-30T12:39:59.573Z,17.12
2019-04-30T12:42:28.678Z,16.55
2019-04-30T12:44:56.067Z,16.42
2019-04-30T12:47:24.023Z,16.57
2019-04-30T12:50:09.556Z,16.30
2019-04-30T12:52:42.554Z,16.10
2019-04-30T12:55:19.976Z,15.60
2019-04-30T12:57:58.312Z,16.37
2019-04-30T13:00:19.603Z,15.70
2019-04-30T13:02:47.116Z,15.65
2019-04-30T13:05:14.804Z,15.23
2019-04-30T13:07:42.837Z,14.65
2019-04-30T13:10:11.164Z,15.63
2019-04-30T13:12:39.632Z,15.40
2019-04-30T13:15:09.128Z,15.65
2019-04-30T13:17:36.376Z,16.65
2019-04-30T13:20:04.626Z,15.58
2019-04-30T13:22:31.925Z,14.30
2019-04-30T13:24:59.738Z,15.43
2019-04-30T13:27:30.466Z,15.20
2019-04-30T13:30:20.598Z,15.15
2019-04-30T13:32:55.484Z,15.10
2019-04-30T13:35:22.747Z,13.80
2019-04-30T13:38:01.285Z,14.55
2019-04-30T13:40:48.862Z,15.18
2019-04-30T13:43:16.947Z,15.65
2019-04-30T13:45:44.188Z,14.70
2019-04-30T13:48:11.450Z,16.42
2019-04-30T13:50:39.122Z,15.68
2019-04-30T13:53:06.534Z,14.28
2019-04-30T13:55:43.692Z,15.03
2019-04-30T13:58:02.927Z,15.55
2019-04-30T14:00:30.147Z,14.55
2019-04-30T14:03:04.840Z,14.43
2019-04-30T14:05:32.093Z,15.05
2019-04-30T14:08:17.219Z,14.45
2019-04-30T14:10:45.356Z,15.60
2019-04-30T14:13:12.711Z,15.35
2019-04-30T14:15:40.095Z,15.20
2019-04-30T14:18:09.224Z,13.95
2019-04-30T14:20:36.573Z,11.05
2019-04-30T14:23:04.927Z,10.50
2019-04-30T14:25:32.225Z,10.38
2019-04-30T14:27:59.487Z,8.98
2019-04-30T14:30:26.763Z,9.18
2019-04-30T14:32:53.998Z,9.20
2019-04-30T14:35:21.384Z,8.65
2019-04-30T14:37:49.655Z,9.10
2019-04-30T14:40:19.836Z,9.88
2019-04-30T14:42:56.139Z,9.55
2019-04-30T14:45:31.308Z,9.35
2019-04-30T14:48:05.507Z,9.60
2019-04-30T14:50:33.157Z,8.88
2019-04-30T14:53:23.052Z,8.83
2019-04-30T14:56:11.487Z,8.90
2019-04-30T14:59:00.067Z,9.08
2019-04-30T15:01:51.676Z,9.63
2019-04-30T15:04:20.564Z,9.58
2019-04-30T15:06:48.756Z,9.78
2019-04-30T15:09:17.172Z,10.65
2019-04-30T15:11:44.565Z,10.03
2019-04-30T15:14:11.958Z,9.05
2019-04-30T15:16:39.280Z,9.90
2019-04-30T15:19:06.665Z,10.58
2019-04-30T15:21:33.953Z,9.38
2019-04-30T15:24:16.313Z,10.55
2019-04-30T15:26:43.605Z,10.45
2019-04-30T15:29:14.439Z,9.68
2019-04-30T15:31:42.541Z,9.50
2019-04-30T15:34:11.157Z,9.40
2019-04-30T15:36:39.263Z,8.98
2019-04-30T15:39:39.478Z,10.05
2019-04-30T15:42:07.175Z,9.58
2019-04-30T15:44:40.085Z,10.00
2019-04-30T15:47:04.436Z,10.55
2019-04-30T15:49:31.847Z,10.05
2019-04-30T15:51:59.160Z,10.50
2019-04-30T15:54:26.439Z,10.18
2019-04-30T15:56:53.704Z,9.73
2019-04-30T15:59:52.586Z,9.38
2019-04-30T16:02:25.213Z,9.93
2019-04-30T16:05:30.201Z,9.75
2019-04-30T16:08:15.479Z,9.25
2019-04-30T16:10:53.663Z,10.18
2019-04-30T16:13:22.788Z,9.05
2019-04-30T16:15:50.289Z,9.15
2019-04-30T16:18:19.458Z,10.68
2019-04-30T16:20:46.743Z,8.48
2019-04-30T16:23:13.999Z,8.55
2019-04-30T16:25:41.283Z,8.90
2019-04-30T16:28:10.090Z,8.85
2019-04-30T16:30:37.503Z,8.18
2019-04-30T16:33:04.768Z,7.67
2019-04-30T16:35:32.038Z,7.67
2019-04-30T16:37:59.478Z,7.67
2019-04-30T16:40:29.012Z,7.80
2019-04-30T16:42:56.401Z,7.35
2019-04-30T16:45:24.264Z,8.10
2019-04-30T16:47:51.640Z,6.95
2019-04-30T16:50:19.121Z,7.58
2019-04-30T16:52:46.339Z,7.60
2019-04-30T16:55:13.595Z,7.70
2019-04-30T16:57:40.861Z,7.33
2019-04-30T17:00:11.529Z,7.58
2019-04-30T17:02:40.864Z,7.00
2019-04-30T17:05:22.382Z,7.15
2019-04-30T17:07:59.244Z,7.30
2019-04-30T17:10:42.001Z,7.22
2019-04-30T17:13:15.914Z,12.03
2019-04-30T17:15:43.253Z,12.78
2019-04-30T17:18:12.211Z,11.78
2019-04-30T17:20:40.092Z,12.82
2019-04-30T17:23:09.341Z,13.40
2019-04-30T17:25:37.031Z,14.05
2019-04-30T17:28:04.367Z,12.07
2019-04-30T17:30:31.817Z,13.78
2019-04-30T17:32:59.789Z,12.53
2019-04-30T17:35:28.877Z,12.28
2019-04-30T17:37:56.232Z,13.28
2019-04-30T17:40:23.535Z,12.35
2019-04-30T17:42:50.754Z,12.78
2019-04-30T17:45:19.585Z,12.43
2019-04-30T17:47:47.063Z,13.08
2019-04-30T17:50:14.568Z,12.88
2019-04-30T17:52:41.817Z,13.10
2019-04-30T17:55:09.856Z,12.85
2019-04-30T17:57:37.258Z,12.05
2019-04-30T18:00:16.181Z,13.20
2019-04-30T18:02:35.176Z,12.78
2019-04-30T18:05:02.477Z,12.75
2019-04-30T18:07:29.738Z,12.15
2019-04-30T18:09:58.613Z,13.45
2019-04-30T18:12:26.088Z,12.55
2019-04-30T18:14:53.328Z,13.48
2019-04-30T18:17:21.440Z,13.30
2019-04-30T18:20:03.412Z,13.28
2019-04-30T18:22:55.853Z,12.40
2019-04-30T18:25:51.703Z,11.57
2019-04-30T18:28:19.176Z,12.05
2019-04-30T18:30:46.448Z,13.10
2019-04-30T18:33:13.696Z,12.47
2019-04-30T18:35:40.940Z,13.10
2019-04-30T18:38:09.810Z,12.58
2019-04-30T18:40:37.216Z,12.25
2019-04-30T18:43:04.696Z,13.70
2019-04-30T18:45:31.981Z,14.60
2019-04-30T18:47:59.553Z,15.70
2019-04-30T18:50:28.525Z,15.35
2019-04-30T18:52:58.696Z,13.40
2019-04-30T18:55:26.346Z,13.95
2019-04-30T18:57:56.742Z,13.90
2019-04-30T19:00:42.370Z,12.63
2019-04-30T19:03:10.006Z,12.05
2019-04-30T19:05:39.306Z,12.43
2019-04-30T19:08:15.421Z,13.48
2019-04-30T19:10:54.248Z,12.15
2019-04-30T19:13:30.193Z,12.60
2019-04-30T19:16:28.925Z,13.05
2019-04-30T19:19:02.323Z,12.07
2019-04-30T19:21:29.697Z,14.38
2019-04-30T19:23:58.672Z,15.93
2019-04-30T19:26:26.156Z,14.50
2019-04-30T19:28:53.455Z,14.45
2019-04-30T19:31:20.800Z,14.53
2019-04-30T19:33:48.954Z,12.60
2019-04-30T19:36:18.989Z,13.20
2019-04-30T19:38:45.476Z,13.80
2019-04-30T19:41:12.788Z,14.13
2019-04-30T19:43:40.068Z,15.10
2019-04-30T19:46:09.060Z,15.78
2019-04-30T19:48:36.552Z,19.62
2019-04-30T19:51:05.325Z,20.60
2019-04-30T19:53:32.969Z,20.72
2019-04-30T19:56:00.295Z,20.10
2019-04-30T19:58:46.361Z,19.73
2019-04-30T20:00:57.183Z,19.30
2019-04-30T20:03:26.520Z,17.62
2019-04-30T20:05:53.877Z,16.62
2019-04-30T20:08:21.243Z,17.05
2019-04-30T20:10:49.625Z,23.22
2019-04-30T20:13:30.624Z,21.00
2019-04-30T20:15:46.296Z,19.50
2019-04-30T20:18:13.596Z,20.27
2019-04-30T20:20:42.884Z,18.95
2019-04-30T20:23:10.176Z,18.77
2019-04-30T20:25:37.479Z,18.65
2019-04-30T20:28:04.747Z,17.10
2019-04-30T20:30:32.044Z,17.32
2019-04-30T20:32:59.518Z,16.37
2019-04-30T20:35:26.925Z,17.27
2019-04-30T20:38:12.756Z,17.92
2019-04-30T20:40:43.732Z,16.25
2019-04-30T20:43:14.129Z,16.15
2019-04-30T20:45:41.402Z,15.80
2019-04-30T20:48:09.040Z,15.83
2019-04-30T20:50:36.453Z,15.65
2019-04-30T20:53:03.703Z,13.53
2019-04-30T20:55:30.990Z,14.58
2019-04-30T20:57:59.477Z,13.38
2019-04-30T21:00:27.386Z,13.90
2019-04-30T21:02:54.664Z,12.50
2019-04-30T21:05:21.950Z,13.38
2019-04-30T21:07:49.369Z,12.82
2019-04-30T21:10:16.593Z,13.75
2019-04-30T21:12:44.021Z,12.75
2019-04-30T21:15:12.080Z,13.05
2019-04-30T21:17:39.320Z,12.43
2019-04-30T21:20:09.682Z,11.63
2019-04-30T21:22:38.845Z,13.30
2019-04-30T21:25:06.462Z,12.43
2019-04-30T21:27:33.698Z,12.73
2019-04-30T21:30:00.960Z,11.93
2019-04-30T21:32:46.243Z,12.58
2019-04-30T21:35:31.455Z,13.28
2019-04-30T21:38:01.719Z,12.50
2019-04-30T21:40:29.607Z,14.83
2019-04-30T21:42:57.268Z,15.30
2019-04-30T21:45:24.585Z,15.63
2019-04-30T21:47:56.333Z,16.15
2019-04-30T21:50:21.069Z,15.53
2019-04-30T21:52:49.550Z,14.70
2019-04-30T21:55:16.868Z,13.75
2019-04-30T21:57:44.178Z,14.23
2019-04-30T22:00:14.651Z,14.20
2019-04-30T22:02:41.879Z,13.95
2019-04-30T22:05:09.275Z,13.20
2019-04-30T22:07:36.516Z,13.72
2019-04-30T22:10:04.587Z,13.65
2019-04-30T22:12:31.839Z,14.18
2019-04-30T22:14:59.171Z,14.00
2019-04-30T22:17:26.407Z,15.45
2019-04-30T22:19:53.589Z,13.88
2019-04-30T22:22:20.892Z,14.18
2019-04-30T22:24:49.703Z,15.05
2019-04-30T22:27:17.525Z,13.72
2019-04-30T22:29:44.908Z,14.50
2019-04-30T22:32:12.160Z,13.15
2019-04-30T22:34:39.414Z,12.70
2019-04-30T22:37:08.439Z,12.20
2019-04-30T22:39:46.650Z,13.20
2019-04-30T22:42:34.505Z,11.90
2019-04-30T22:45:05.332Z,11.60
2019-04-30T22:47:32.568Z,12.13
2019-04-30T22:49:59.788Z,12.15
2019-04-30T22:52:27.109Z,11.95
2019-04-30T22:54:54.409Z,12.73
2019-04-30T22:57:21.657Z,11.90
2019-04-30T22:59:49.952Z,12.35
2019-04-30T23:02:37.185Z,10.88
2019-04-30T23:05:06.644Z,11.50
2019-04-30T23:07:33.911Z,11.97
2019-04-30T23:10:01.176Z,11.88
2019-04-30T23:12:28.676Z,11.57
2019-04-30T23:14:55.944Z,11.73
2019-04-30T23:17:23.223Z,12.03
2019-04-30T23:19:50.452Z,11.88
2019-04-30T23:22:17.773Z,11.53
2019-04-30T23:24:45.144Z,11.15
2019-04-30T23:27:12.424Z,11.63
2019-04-30T23:29:39.683Z,12.00
2019-04-30T23:32:06.968Z,11.45
2019-04-30T23:34:34.252Z,11.53
2019-04-30T23:37:01.488Z,11.43
2019-04-30T23:39:28.741Z,11.95
2019-04-30T23:41:55.968Z,11.55
2019-04-30T23:44:23.284Z,11.95
2019-04-30T23:46:50.577Z,11.68
2019-04-30T23:49:17.812Z,11.55
2019-04-30T23:51:45.084Z,11.05
2019-04-30T23:54:12.340Z,11.38
2019-04-30T23:56:39.583Z,10.82
2019-04-30T23:59:06.832Z,12.30
